Time;durP1;ratioP1;P1;durP2;ratioP2;P2;SDS_P1;SDS_P2;PMS_P1;PMS_P2;Temp;Humidity;BMP_temperature;BMP_pressure;BME280_temperature;BME280_humidity;BME280_pressure;Samples;Min_cycle;Max_cycle;Signal;HPM_P1;HPM_P2
2021/01/20 00:01:05;;;;;;;70.63;22.33;;;;;;;-7.92;75.73;101546.88;1683325;85;21079;-54
2021/01/20 00:03:34;;;;;;;94.77;32.93;;;;;;;-7.91;75.79;101554.27;1683340;85;21067;-55
2021/01/20 00:06:02;;;;;;;74.03;27.80;;;;;;;-7.92;75.75;101552.47;1682978;85;21839;-55
2021/01/20 00:08:30;;;;;;;84.00;27.47;;;;;;;-7.94;75.70;101558.00;1683399;85;21131;-54
2021/01/20 00:10:57;;;;;;;74.00;24.27;;;;;;;-7.94;75.84;101556.70;1683372;84;21099;-55
2021/01/20 00:13:25;;;;;;;62.33;23.03;;;;;;;-7.91;76.31;101552.95;1683361;85;21092;-54
2021/01/20 00:15:52;;;;;;;81.30;27.80;;;;;;;-7.84;76.67;101549.89;1683406;85;21118;-55
2021/01/20 00:18:20;;;;;;;79.63;28.30;;;;;;;-7.75;76.87;101553.78;1683373;85;21715;-54
2021/01/20 00:20:48;;;;;;;72.80;25.33;;;;;;;-7.71;77.06;101559.63;1683299;85;21127;-54
2021/01/20 00:23:15;;;;;;;75.03;27.17;;;;;;;-7.64;77.39;101555.22;1683413;85;21084;-54
2021/01/20 00:25:43;;;;;;;73.67;27.20;;;;;;;-7.56;77.40;101564.35;1683386;85;21095;-54
2021/01/20 00:28:11;;;;;;;65.23;22.90;;;;;;;-7.48;77.45;101562.15;1683381;85;21119;-53
2021/01/20 00:30:39;;;;;;;69.47;23.90;;;;;;;-7.39;77.64;101563.03;1683413;85;21440;-54
2021/01/20 00:33:06;;;;;;;65.73;24.97;;;;;;;-7.28;77.81;101557.07;1683286;84;21095;-54
2021/01/20 00:35:35;;;;;;;79.27;27.13;;;;;;;-7.20;77.71;101557.92;1683396;85;21129;-53
2021/01/20 00:38:03;;;;;;;95.10;33.57;;;;;;;-7.14;77.78;101553.85;1707445;83;21119;-53
2021/01/20 00:40:30;;;;;;;81.37;29.27;;;;;;;-7.06;77.91;101559.94;1723577;82;21130;-54
2021/01/20 00:42:58;;;;;;;119.03;37.43;;;;;;;-7.05;77.51;101553.00;1723512;83;21204;-54
2021/01/20 00:45:25;;;;;;;104.10;35.97;;;;;;;-7.07;77.49;101552.94;1723494;83;21102;-53
2021/01/20 00:47:53;;;;;;;113.83;37.77;;;;;;;-7.08;77.40;101548.94;1723554;83;21513;-53
2021/01/20 00:50:21;;;;;;;123.20;41.30;;;;;;;-7.13;76.99;101552.61;1736956;81;21161;-53
2021/01/20 00:52:48;;;;;;;111.67;38.83;;;;;;;-7.25;76.61;101552.89;1753526;81;21186;-54
2021/01/20 00:55:17;;;;;;;126.70;41.47;;;;;;;-7.31;76.87;101553.89;1753452;81;21685;-54
2021/01/20 00:57:47;;;;;;;111.90;40.03;;;;;;;-7.31;77.01;101559.49;1753170;81;21225;-54
2021/01/20 01:00:17;;;;;;;107.60;38.13;;;;;;;-7.39;76.51;101552.61;1753468;81;21086;-54
2021/01/20 01:02:46;;;;;;;97.73;33.53;;;;;;;-7.45;77.21;101550.97;1753467;81;21074;-54
2021/01/20 01:05:15;;;;;;;80.00;27.50;;;;;;;-7.43;77.64;101557.16;1753459;81;21062;-54
2021/01/20 01:07:45;;;;;;;62.27;22.53;;;;;;;-7.37;78.15;101548.37;1753520;81;21210;-55
2021/01/20 01:10:13;;;;;;;60.67;23.87;;;;;;;-7.28;78.72;101542.31;1753334;81;21177;-54
2021/01/20 01:12:49;;;;;;;71.00;26.13;;;;;;;-7.10;79.21;101544.06;1736044;81;21165;-55
2021/01/20 01:15:18;;;;;;;69.50;24.60;;;;;;;-6.97;79.30;101543.83;1753484;81;21066;-54
2021/01/20 01:17:47;;;;;;;79.57;27.53;;;;;;;-6.91;79.33;101536.34;1753425;81;21090;-54
2021/01/20 01:20:18;;;;;;;75.50;29.20;;;;;;;-6.87;79.54;101531.27;1753484;81;21407;-54
2021/01/20 01:22:49;;;;;;;70.62;26.45;;;;;;;-6.77;80.23;101533.48;1753526;81;21181;-54
2021/01/20 01:25:18;;;;;;;71.83;26.77;;;;;;;-6.66;80.62;101540.12;1753498;81;21079;-54
2021/01/20 01:27:48;;;;;;;63.70;24.33;;;;;;;-6.56;80.80;101536.64;1753303;81;21818;-54
2021/01/20 01:30:17;;;;;;;76.90;27.73;;;;;;;-6.45;81.60;101545.89;1753527;81;21165;-54
2021/01/20 01:32:45;;;;;;;81.73;29.53;;;;;;;-6.38;82.21;101542.74;1753490;81;22262;-54
2021/01/20 01:35:14;;;;;;;77.73;26.40;;;;;;;-6.30;82.57;101533.06;1753151;81;21106;-54
2021/01/20 01:37:44;;;;;;;71.73;26.07;;;;;;;-6.20;83.12;101530.07;1738628;81;21110;-55
2021/01/20 01:40:12;;;;;;;65.63;23.83;;;;;;;-6.16;83.12;101533.73;1722934;83;21146;-54
2021/01/20 01:42:44;;;;;;;71.13;27.70;;;;;;;-6.21;83.16;101527.86;1715541;83;21114;-53
2021/01/20 01:45:14;;;;;;;65.20;24.80;;;;;;;-6.20;83.41;101532.69;1722928;83;21703;-54
2021/01/20 01:47:44;;;;;;;79.57;29.23;;;;;;;-6.17;83.79;101537.16;1722889;83;21154;-55
2021/01/20 01:50:12;;;;;;;81.53;27.60;;;;;;;-6.14;83.97;101530.34;1716913;83;21218;-54
2021/01/20 01:52:40;;;;;;;77.67;27.30;;;;;;;-6.17;83.79;101529.33;1700792;84;21138;-54
2021/01/20 01:55:21;;;;;;;90.43;33.53;;;;;;;-6.18;84.17;101524.50;1680459;83;21157;-55
2021/01/20 01:57:57;;;;;;;88.30;30.80;;;;;;;-6.13;84.45;101528.64;1688191;83;21368;-55
2021/01/20 02:00:26;;;;;;;114.77;39.73;;;;;;;-6.11;84.46;101526.99;1700657;84;20945;-55
2021/01/20 02:03:13;;;;;;;87.00;32.10;;;;;;;-6.09;84.42;101530.56;1700336;83;21233;-55
2021/01/20 02:05:42;;;;;;;84.73;32.53;;;;;;;-6.11;84.28;101527.88;1700472;84;21149;-56
2021/01/20 02:08:09;;;;;;;88.97;33.07;;;;;;;-6.11;84.23;101535.70;1700549;84;21162;-55
2021/01/20 02:10:40;;;;;;;84.97;31.70;;;;;;;-6.15;83.86;101535.09;1699939;83;21367;-54
2021/01/20 02:13:39;;;;;;;94.93;30.47;;;;;;;-6.21;83.65;101536.12;1700465;84;21174;-55
2021/01/20 02:16:24;;;;;;;91.80;31.07;;;;;;;-6.22;84.01;101526.50;1699451;83;21086;-54
2021/01/20 02:18:54;;;;;;;93.40;33.60;;;;;;;-6.15;84.08;101530.30;1700521;83;21189;-54
2021/01/20 02:21:35;;;;;;;100.30;36.07;;;;;;;-6.18;83.61;101536.26;1700385;83;21142;-55
2021/01/20 02:24:24;;;;;;;113.37;38.67;;;;;;;-6.30;82.82;101530.45;1700748;84;21433;-55
2021/01/20 02:27:05;;;;;;;118.93;40.97;;;;;;;-6.51;82.28;101534.75;1684337;84;21496;-54
2021/01/20 02:30:04;;;;;;;143.13;44.77;;;;;;;-6.61;82.20;101540.36;1873105;76;26970;-55
2021/01/20 02:32:49;;;;;;;100.13;34.30;;;;;;;-6.77;82.35;101532.18;1840759;78;21037;-55
2021/01/20 02:35:18;;;;;;;83.90;29.37;;;;;;;-6.83;83.03;101544.93;1810748;78;21470;-54
2021/01/20 02:37:45;;;;;;;74.03;28.00;;;;;;;-6.75;84.01;101540.97;1833363;78;21042;-54
2021/01/20 02:40:27;;;;;;;87.87;28.90;;;;;;;-6.62;84.55;101548.59;1824120;78;20979;-54
2021/01/20 02:42:58;;;;;;;84.20;30.73;;;;;;;-6.53;84.60;101539.00;1822778;78;20987;-54
2021/01/20 02:45:27;;;;;;;91.13;33.10;;;;;;;-6.50;84.18;101539.57;1824453;78;20992;-55
2021/01/20 02:47:56;;;;;;;80.73;30.10;;;;;;;-6.51;84.14;101526.04;1825087;78;21379;-54
2021/01/20 02:50:25;;;;;;;79.17;30.30;;;;;;;-6.50;84.14;101525.22;1824904;78;21055;-54
2021/01/20 02:53:16;;;;;;;103.10;33.67;;;;;;;-6.42;84.41;101515.11;1824947;78;20976;-55
2021/01/20 02:55:59;;;;;;;92.33;33.90;;;;;;;-6.35;84.42;101512.87;1825021;78;21173;-55
2021/01/20 02:58:46;;;;;;;98.73;37.13;;;;;;;-6.27;84.36;101517.57;1824969;78;21054;-54
2021/01/20 03:01:25;;;;;;;100.67;37.40;;;;;;;-6.16;84.46;101504.58;1792960;78;21657;-54
2021/01/20 03:03:53;;;;;;;110.17;39.43;;;;;;;-6.05;84.23;101504.67;1824940;78;20928;-55
2021/01/20 03:06:21;;;;;;;126.17;44.93;;;;;;;-6.01;83.81;101504.81;1824891;77;21047;-55
2021/01/20 03:08:49;;;;;;;107.70;39.37;;;;;;;-6.03;83.20;101511.68;1824944;78;21134;-55
2021/01/20 03:11:16;;;;;;;99.17;37.30;;;;;;;-6.14;82.92;101512.06;1824919;78;21089;-55
2021/01/20 03:13:44;;;;;;;85.87;31.80;;;;;;;-6.10;83.39;101513.99;1824991;78;21358;-55
2021/01/20 03:16:12;;;;;;;98.93;34.93;;;;;;;-6.02;83.41;101505.63;1824806;77;20928;-55
2021/01/20 03:18:40;;;;;;;93.20;35.20;;;;;;;-5.97;83.31;101504.08;1825039;78;20885;-54
2021/01/20 03:21:07;;;;;;;104.47;35.70;;;;;;;-5.94;83.25;101510.74;1824769;78;21110;-55
2021/01/20 03:23:36;;;;;;;89.50;35.17;;;;;;;-5.88;83.40;101500.98;1825018;78;20975;-53
2021/01/20 03:26:03;;;;;;;95.87;34.67;;;;;;;-5.84;83.19;101495.06;1824928;78;21333;-54
2021/01/20 03:28:31;;;;;;;114.23;40.23;;;;;;;-5.78;83.21;101492.72;1827002;78;21078;-54
2021/01/20 03:30:58;;;;;;;104.93;38.83;;;;;;;-5.69;83.20;101497.45;1831056;77;20975;-54
2021/01/20 03:33:26;;;;;;;115.73;42.33;;;;;;;-5.67;82.64;101498.41;1831157;78;21063;-55
2021/01/20 03:35:55;;;;;;;116.33;41.40;;;;;;;-5.70;82.27;101500.89;1831112;78;21201;-54
2021/01/20 03:38:23;;;;;;;118.07;43.30;;;;;;;-5.75;81.93;101488.53;1831096;78;21424;-55
2021/01/20 03:40:50;;;;;;;111.40;39.60;;;;;;;-5.80;81.83;101490.05;1830474;77;21444;-54
2021/01/20 03:43:17;;;;;;;102.80;37.07;;;;;;;-5.78;81.86;101492.31;1830389;78;21003;-55
2021/01/20 03:45:45;;;;;;;106.83;36.83;;;;;;;-5.73;82.03;101491.63;1830478;78;21011;-55
2021/01/20 03:48:12;;;;;;;122.50;43.13;;;;;;;-5.66;82.07;101499.80;1830425;78;20979;-54
2021/01/20 03:50:40;;;;;;;90.20;33.70;;;;;;;-5.60;82.04;101497.87;1830439;78;21689;-55
2021/01/20 03:53:08;;;;;;;85.33;31.73;;;;;;;-5.53;82.05;101497.30;1830314;78;21081;-54
2021/01/20 03:55:35;;;;;;;82.80;31.20;;;;;;;-5.42;82.29;101491.63;1830463;77;21047;-55
2021/01/20 03:58:03;;;;;;;106.00;37.97;;;;;;;-5.29;82.27;101493.94;1830446;78;20947;-55
2021/01/20 04:00:30;;;;;;;73.13;28.33;;;;;;;-5.15;82.07;101505.40;1830448;78;20920;-54
2021/01/20 04:02:58;;;;;;;79.97;30.83;;;;;;;-5.08;82.01;101495.66;1830488;77;21373;-54
2021/01/20 04:05:27;;;;;;;78.30;27.93;;;;;;;-5.01;81.71;101496.38;1829353;77;20983;-55
2021/01/20 04:07:55;;;;;;;78.70;30.30;;;;;;;-4.91;81.90;101502.48;1830484;77;21058;-55
2021/01/20 04:10:24;;;;;;;68.93;28.67;;;;;;;-4.78;82.05;101505.58;1830358;78;21047;-54
2021/01/20 04:12:51;;;;;;;82.23;30.27;;;;;;;-4.66;81.81;101502.15;1830438;77;21038;-54
2021/01/20 04:15:19;;;;;;;79.40;28.80;;;;;;;-4.54;81.81;101498.21;1830391;78;21296;-55
2021/01/20 04:17:49;;;;;;;68.63;27.60;;;;;;;-4.43;81.73;101494.30;1830409;78;21133;-54
2021/01/20 04:20:17;;;;;;;72.63;27.93;;;;;;;-4.35;81.22;101505.95;1830326;78;21134;-55
2021/01/20 04:22:44;;;;;;;161.77;54.20;;;;;;;-4.29;81.17;101501.37;1830446;78;21039;-55
2021/01/20 04:25:13;;;;;;;87.80;34.17;;;;;;;-4.21;80.99;101501.67;1830405;77;20927;-55
2021/01/20 04:27:40;;;;;;;112.03;43.30;;;;;;;-4.20;80.14;101493.88;1830434;78;21803;-55
2021/01/20 04:30:09;;;;;;;74.00;30.30;;;;;;;-4.19;80.08;101497.38;1830288;78;21031;-54
2021/01/20 04:32:36;;;;;;;76.50;30.10;;;;;;;-4.17;79.67;101498.32;1830400;78;21150;-55
2021/01/20 04:35:06;;;;;;;128.00;48.13;;;;;;;-4.13;79.73;101502.83;1830363;77;20968;-54
2021/01/20 04:37:34;;;;;;;92.00;35.57;;;;;;;-4.08;79.19;101497.78;1830385;78;20992;-55
2021/01/20 04:40:02;;;;;;;94.23;35.33;;;;;;;-4.09;78.78;101504.76;1830460;78;21235;-53
2021/01/20 04:42:29;;;;;;;87.70;31.60;;;;;;;-4.06;78.89;101504.87;1830260;77;20991;-54
2021/01/20 04:44:57;;;;;;;77.53;28.60;;;;;;;-4.00;78.84;101500.69;1830417;78;20999;-55
2021/01/20 04:47:24;;;;;;;126.10;43.63;;;;;;;-3.94;78.67;101502.21;1830344;78;20876;-54
2021/01/20 04:49:52;;;;;;;134.13;47.97;;;;;;;-3.93;77.83;101505.30;1830393;78;21157;-55
2021/01/20 04:52:20;;;;;;;83.03;29.93;;;;;;;-3.98;77.65;101506.47;1830280;77;21407;-54
2021/01/20 04:54:47;;;;;;;92.30;32.53;;;;;;;-3.96;77.82;101511.75;1830376;77;20964;-54
2021/01/20 04:57:15;;;;;;;98.50;34.77;;;;;;;-3.92;77.94;101507.99;1830395;78;21199;-55
2021/01/20 04:59:43;;;;;;;88.60;32.13;;;;;;;-3.85;78.00;101510.42;1830262;78;21035;-55
2021/01/20 05:02:11;;;;;;;88.67;31.70;;;;;;;-3.79;77.79;101511.95;1830396;78;21055;-55
2021/01/20 05:04:42;;;;;;;82.23;30.57;;;;;;;-3.76;77.55;101508.53;1830332;78;21191;-55
2021/01/20 05:07:10;;;;;;;119.37;41.53;;;;;;;-3.72;77.62;101506.92;1830371;77;20930;-55
2021/01/20 05:09:37;;;;;;;108.40;37.03;;;;;;;-3.67;77.18;101511.91;1830298;78;21098;-54
2021/01/20 05:12:07;;;;;;;85.50;28.17;;;;;;;-3.73;76.83;101513.91;1830375;77;21046;-54
2021/01/20 05:14:40;;;;;;;105.03;37.33;;;;;;;-3.76;77.07;101517.70;1830463;78;21439;-54
2021/01/20 05:17:08;;;;;;;123.13;42.83;;;;;;;-3.72;77.21;101520.94;1830381;78;21256;-55
2021/01/20 05:19:38;;;;;;;85.93;31.47;;;;;;;-3.70;76.89;101524.90;1830216;77;21185;-54
2021/01/20 05:22:07;;;;;;;78.70;29.50;;;;;;;-3.75;76.86;101515.15;1830507;78;21566;-54
2021/01/20 05:24:35;;;;;;;96.57;35.33;;;;;;;-3.74;77.37;101515.63;1830329;78;21476;-54
2021/01/20 05:27:04;;;;;;;94.30;31.50;;;;;;;-3.65;77.67;101525.95;1830403;78;20908;-55
2021/01/20 05:29:31;;;;;;;96.20;33.37;;;;;;;-3.60;77.85;101525.72;1827385;77;21354;-55
2021/01/20 05:32:17;;;;;;;84.73;30.17;;;;;;;-3.54;78.37;101525.93;1824185;78;20987;-54
2021/01/20 05:35:07;;;;;;;85.70;31.67;;;;;;;-3.43;79.34;101526.72;1824253;78;21166;-54
2021/01/20 05:37:44;;;;;;;72.17;26.87;;;;;;;-3.35;80.17;101529.20;1830659;78;20879;-54
2021/01/20 05:40:15;;;;;;;63.77;25.37;;;;;;;-3.29;81.05;101537.28;1840391;78;21076;-54
2021/01/20 05:42:51;;;;;;;67.03;25.23;;;;;;;-3.20;82.21;101536.70;1840260;78;21190;-53
2021/01/20 05:45:23;;;;;;;54.93;19.47;;;;;;;-3.12;82.79;101534.34;1840192;78;21532;-54
2021/01/20 05:48:07;;;;;;;44.57;19.27;;;;;;;-3.02;83.61;101533.80;1840428;78;21190;-55
2021/01/20 05:50:37;;;;;;;41.83;18.70;;;;;;;-2.90;84.19;101535.53;1840240;78;21480;-53
2021/01/20 05:53:11;;;;;;;41.00;16.87;;;;;;;-2.77;85.02;101533.30;1840418;78;20934;-54
2021/01/20 05:55:39;;;;;;;42.00;16.62;;;;;;;-2.65;85.91;101527.14;1840327;78;21187;-55
2021/01/20 05:58:07;;;;;;;42.90;15.10;;;;;;;-2.52;86.49;101536.30;1840263;78;20997;-55
2021/01/20 06:00:34;;;;;;;40.53;16.47;;;;;;;-2.39;87.13;101529.69;1840211;78;20914;-54
2021/01/20 06:03:02;;;;;;;40.07;17.33;;;;;;;-2.27;87.43;101533.55;1840275;78;21045;-54
2021/01/20 06:05:30;;;;;;;32.30;15.30;;;;;;;-2.18;87.62;101531.19;1840198;78;20934;-55
2021/01/20 06:07:58;;;;;;;39.37;15.33;;;;;;;-2.09;87.88;101541.99;1840274;78;21345;-54
2021/01/20 06:10:26;;;;;;;37.57;15.77;;;;;;;-1.99;88.17;101543.56;1840185;78;21040;-55
2021/01/20 06:12:53;;;;;;;37.93;15.10;;;;;;;-1.91;88.28;101548.20;1840241;78;20985;-55
2021/01/20 06:15:22;;;;;;;38.63;15.78;;;;;;;-1.83;88.25;101536.60;1840332;78;21036;-54
2021/01/20 06:17:51;;;;;;;36.30;15.90;;;;;;;-1.75;88.22;101553.47;1840243;78;20910;-54
2021/01/20 06:20:23;;;;;;;35.80;15.03;;;;;;;-1.66;88.46;101551.94;1840331;78;21533;-55
2021/01/20 06:22:52;;;;;;;35.58;15.43;;;;;;;-1.60;88.44;101550.83;1839944;78;21036;-55
2021/01/20 06:25:30;;;;;;;34.20;14.55;;;;;;;-1.52;88.25;101561.12;1840011;77;21151;-55
2021/01/20 06:28:07;;;;;;;36.42;16.10;;;;;;;-1.42;87.93;101553.50;1840332;78;21532;-54
2021/01/20 06:30:38;;;;;;;30.50;14.28;;;;;;;-1.33;87.67;101559.91;1843844;77;21591;-54
2021/01/20 06:33:09;;;;;;;29.72;14.18;;;;;;;-1.23;87.03;101554.44;1846134;77;21446;-54
2021/01/20 06:35:38;;;;;;;33.80;14.43;;;;;;;-1.12;85.34;101556.48;1846046;77;21092;-55
2021/01/20 06:38:29;;;;;;;34.40;14.83;;;;;;;-1.03;83.91;101555.39;1834860;77;21024;-54
2021/01/20 06:41:07;;;;;;;33.08;14.65;;;;;;;-0.96;82.74;101559.98;1808523;77;21115;-55
2021/01/20 06:43:40;;;;;;;34.25;13.72;;;;;;;-0.87;81.39;101557.56;1846235;77;21053;-54
2021/01/20 06:46:21;;;;;;;36.90;14.68;;;;;;;-0.79;80.09;101556.86;1846151;77;21186;-55
2021/01/20 06:49:01;;;;;;;33.73;14.40;;;;;;;-0.74;79.38;101563.16;1846020;77;21123;-54
2021/01/20 06:51:29;;;;;;;32.98;14.80;;;;;;;-0.66;78.69;101558.08;1846202;77;21124;-55
2021/01/20 06:54:08;;;;;;;31.52;14.25;;;;;;;-0.58;78.09;101560.02;1846140;77;20977;-54
2021/01/20 06:56:46;;;;;;;35.55;14.93;;;;;;;-0.49;77.57;101559.80;1846189;77;21132;-55
2021/01/20 06:59:30;;;;;;;31.57;14.20;;;;;;;-0.41;76.94;101552.95;1843185;77;21394;-55
2021/01/20 07:02:09;;;;;;;31.23;13.43;;;;;;;-0.33;76.32;101546.13;1835449;76;21152;-54
2021/01/20 07:04:53;;;;;;;33.45;14.45;;;;;;;-0.23;75.82;101548.95;1763834;81;21553;-54
2021/01/20 07:07:50;;;;;;;31.65;14.28;;;;;;;-0.18;75.03;101546.89;1763758;81;21160;-55
2021/01/20 07:10:19;;;;;;;23.90;12.37;;;;;;;-0.12;74.91;101556.66;1764113;81;21164;-55
2021/01/20 07:13:13;;;;;;;29.90;13.48;;;;;;;-0.04;74.31;101553.78;1764226;81;21553;-58
2021/01/20 07:15:44;;;;;;;27.40;13.22;;;;;;;0.03;73.77;101556.55;1759029;81;21435;-55
2021/01/20 07:18:13;;;;;;;29.82;14.13;;;;;;;0.10;73.42;101565.03;1751012;80;21117;-55
2021/01/20 07:20:42;;;;;;;26.02;13.20;;;;;;;0.17;73.18;101566.97;1763730;81;21478;-55
2021/01/20 07:23:09;;;;;;;31.02;14.05;;;;;;;0.23;72.99;101568.41;1786676;80;21129;-55
2021/01/20 07:25:37;;;;;;;28.40;13.13;;;;;;;0.31;72.76;101567.67;1786659;80;21368;-54
2021/01/20 07:28:05;;;;;;;27.02;12.25;;;;;;;0.37;72.32;101566.50;1786739;80;21081;-55
2021/01/20 07:30:33;;;;;;;30.48;13.80;;;;;;;0.43;71.79;101575.84;1791674;79;21061;-55
2021/01/20 07:33:01;;;;;;;26.80;13.03;;;;;;;0.51;71.45;101578.64;1767064;81;21050;-54
2021/01/20 07:35:29;;;;;;;28.70;13.10;;;;;;;0.56;71.30;101572.61;1798568;79;21100;-54
2021/01/20 07:38:01;;;;;;;27.07;12.10;;;;;;;0.63;71.08;101586.78;1781087;79;22275;-55
2021/01/20 07:40:31;;;;;;;30.48;13.32;;;;;;;0.72;70.84;101583.44;1766947;81;21151;-55
2021/01/20 07:43:01;;;;;;;25.97;11.85;;;;;;;0.79;70.61;101581.39;1730904;82;21181;-54
2021/01/20 07:45:40;;;;;;;25.80;12.23;;;;;;;0.85;70.11;101580.18;1766972;81;21183;-54
2021/01/20 07:48:09;;;;;;;23.52;11.70;;;;;;;0.92;69.75;101581.61;1766991;81;21139;-55
2021/01/20 07:50:48;;;;;;;25.15;11.28;;;;;;;0.98;69.16;101576.42;1767033;81;21422;-57
2021/01/20 07:53:19;;;;;;;28.45;12.30;;;;;;;1.04;68.78;101577.88;1766940;81;21167;-55
2021/01/20 07:55:54;;;;;;;23.95;11.10;;;;;;;1.11;68.38;101578.88;1767169;81;21580;-55
2021/01/20 07:58:30;;;;;;;23.20;11.28;;;;;;;1.17;67.93;101576.75;1767221;81;21088;-54
2021/01/20 08:00:58;;;;;;;22.55;11.25;;;;;;;1.20;67.33;101580.34;1774467;79;21105;-56
2021/01/20 08:03:35;;;;;;;24.23;10.75;;;;;;;1.26;66.91;101575.61;1778293;79;21357;-55
2021/01/20 08:06:10;;;;;;;27.77;11.97;;;;;;;1.29;66.66;101583.13;1766925;81;21210;-56
2021/01/20 08:08:57;;;;;;;24.90;12.55;;;;;;;1.35;66.59;101578.39;1747736;82;21157;-56
2021/01/20 08:11:30;;;;;;;24.07;12.45;;;;;;;1.40;66.50;101572.73;1766825;81;21128;-55
2021/01/20 08:14:01;;;;;;;;;;;;;;;1.49;66.38;101579.06;1769615;79;21058;-55
2021/01/20 08:16:34;;;;;;;24.67;12.40;;;;;;;1.55;66.09;101579.14;1777972;78;22260;-58
2021/01/20 08:19:03;;;;;;;25.48;11.48;;;;;;;1.59;65.99;101578.33;1790174;79;21177;-55
2021/01/20 08:21:34;;;;;;;21.23;11.35;;;;;;;1.63;65.74;101586.75;1790481;79;21121;-55
2021/01/20 08:24:05;;;;;;;19.65;10.25;;;;;;;1.65;65.58;101578.41;1766631;81;21136;-54
2021/01/20 08:26:30;;;;;;;22.32;11.45;;;;;;;1.69;65.47;101581.58;1766425;81;21068;-55
2021/01/20 08:29:11;;;;;;;22.77;10.90;;;;;;;1.75;65.41;101576.80;1766830;81;21194;-56
2021/01/20 08:31:41;;;;;;;24.02;11.65;;;;;;;1.85;65.39;101580.46;1760482;81;21189;-55
2021/01/20 08:34:22;;;;;;;23.00;11.15;;;;;;;1.94;65.11;101574.42;1762886;80;21146;-56
2021/01/20 08:37:01;;;;;;;22.20;10.48;;;;;;;2.03;64.73;101577.21;1769407;80;21059;-57
2021/01/20 08:39:29;;;;;;;23.10;11.20;;;;;;;2.12;64.32;101569.38;1771070;81;21158;-56
2021/01/20 08:42:22;;;;;;;19.70;10.40;;;;;;;2.19;63.54;101569.45;1754918;81;21363;-56
2021/01/20 08:45:13;;;;;;;20.68;10.80;;;;;;;2.23;63.27;101566.88;1771330;81;21135;-57
2021/01/20 08:47:48;;;;;;;21.17;10.60;;;;;;;2.26;62.93;101563.39;1753502;81;21077;-56
2021/01/20 08:50:29;;;;;;;24.05;10.13;;;;;;;2.31;62.90;101564.33;1771372;81;21162;-56
2021/01/20 08:53:06;;;;;;;20.23;10.13;;;;;;;2.37;62.79;101562.20;1754876;81;21122;-56
2021/01/20 08:55:53;;;;;;;19.07;9.93;;;;;;;2.39;62.38;101552.52;1771489;81;22294;-56
2021/01/20 08:58:32;;;;;;;20.85;11.08;;;;;;;2.43;62.34;101558.30;1754787;81;21054;-56
2021/01/20 09:01:23;;;;;;;22.22;11.55;;;;;;;2.49;62.41;101555.70;1771312;80;21118;-56
2021/01/20 09:03:58;;;;;;;26.07;10.80;;;;;;;2.55;62.59;101549.19;1754927;81;21149;-56
2021/01/20 09:06:27;;;;;;;20.20;9.53;;;;;;;2.60;62.74;101554.51;1771398;81;21572;-55
2021/01/20 09:08:55;;;;;;;19.10;9.65;;;;;;;2.63;62.38;101553.66;1754774;81;21193;-57
2021/01/20 09:11:23;;;;;;;20.55;10.70;;;;;;;2.67;62.46;101548.42;1771271;80;21076;-56
2021/01/20 09:13:50;;;;;;;21.50;10.15;;;;;;;2.74;62.63;101545.37;1754899;81;21050;-58
2021/01/20 09:16:34;;;;;;;21.48;10.40;;;;;;;2.75;62.38;101541.86;1771354;80;21189;-55
2021/01/20 09:18:59;;;;;;;19.85;10.23;;;;;;;2.74;62.55;101536.56;1754497;81;21118;-57
2021/01/20 09:21:27;;;;;;;18.25;10.13;;;;;;;2.75;62.80;101535.69;1771303;81;21196;-57
2021/01/20 09:23:55;;;;;;;20.88;10.20;;;;;;;2.82;62.79;101533.55;1754743;81;21149;-57
2021/01/20 09:26:23;;;;;;;19.12;9.80;;;;;;;2.78;62.30;101533.97;1771410;81;21068;-57
2021/01/20 09:28:51;;;;;;;16.17;9.70;;;;;;;2.73;62.06;101530.36;1754693;81;21066;-57
2021/01/20 09:31:20;;;;;;;18.10;9.18;;;;;;;2.71;61.82;101527.72;1771265;81;21492;-57
2021/01/20 09:33:48;;;;;;;16.85;9.30;;;;;;;2.71;62.07;101529.05;1754773;81;21197;-57
2021/01/20 09:36:16;;;;;;;17.23;9.43;;;;;;;2.72;61.84;101527.27;1771268;81;21186;-57
2021/01/20 09:38:43;;;;;;;18.80;10.65;;;;;;;2.71;61.83;101526.81;1757790;81;21078;-58
2021/01/20 09:41:11;;;;;;;20.95;10.70;;;;;;;2.67;61.67;101522.37;1780950;80;21050;-57
2021/01/20 09:43:39;;;;;;;19.60;10.23;;;;;;;2.69;62.10;101517.97;1780896;80;21101;-57
2021/01/20 09:46:07;;;;;;;24.77;11.60;;;;;;;2.75;62.32;101517.16;1780858;80;21348;-54
2021/01/20 09:48:35;;;;;;;30.05;11.95;;;;;;;2.84;62.49;101514.16;1784328;79;21077;-56
2021/01/20 09:51:03;;;;;;;22.60;11.03;;;;;;;2.95;62.40;101517.33;1784088;80;21156;-56
2021/01/20 09:53:32;;;;;;;21.17;10.70;;;;;;;3.02;62.42;101515.20;1784190;80;21191;-55
2021/01/20 09:56:00;;;;;;;22.22;11.28;;;;;;;3.09;62.33;101511.72;1761080;80;21608;-54
2021/01/20 09:58:28;;;;;;;21.48;11.12;;;;;;;3.17;62.41;101510.88;1749948;80;21362;-55
2021/01/20 10:00:58;;;;;;;24.18;11.55;;;;;;;3.21;62.29;101500.33;1749475;82;21165;-53
2021/01/20 10:03:26;;;;;;;20.23;10.63;;;;;;;3.27;62.53;101506.12;1749668;81;21209;-54
2021/01/20 10:05:54;;;;;;;23.40;12.15;;;;;;;3.35;62.48;101495.58;1749666;82;21058;-55
2021/01/20 10:08:22;;;;;;;18.92;10.88;;;;;;;3.40;62.15;101497.36;1749753;81;21128;-55
2021/01/20 10:10:50;;;;;;;21.57;10.10;;;;;;;3.44;62.04;101495.63;1749540;82;21386;-54
2021/01/20 10:13:19;;;;;;;21.65;11.35;;;;;;;3.47;61.85;101484.17;1749661;81;21157;-55
2021/01/20 10:15:48;;;;;;;26.48;12.25;;;;;;;3.49;61.69;101495.66;1758030;80;21116;-55
2021/01/20 10:18:16;;;;;;;22.80;10.98;;;;;;;3.49;61.74;101488.58;1779345;80;21133;-55
2021/01/20 10:20:44;;;;;;;19.77;11.25;;;;;;;3.50;61.70;101489.48;1749753;80;21152;-55
2021/01/20 10:23:12;;;;;;;21.68;10.72;;;;;;;3.49;61.80;101483.28;1749455;81;21609;-55
2021/01/20 10:25:39;;;;;;;18.45;10.80;;;;;;;3.49;61.74;101482.41;1751447;80;21164;-55
2021/01/20 10:28:07;;;;;;;24.75;10.78;;;;;;;3.47;61.96;101484.17;1751701;80;21132;-54
2021/01/20 10:30:37;;;;;;;21.17;10.63;;;;;;;3.44;62.22;101478.39;1767666;79;21212;-55
2021/01/20 10:33:04;;;;;;;22.22;10.70;;;;;;;3.42;62.39;101481.02;1798112;79;21241;-56
2021/01/20 10:35:32;;;;;;;20.62;11.18;;;;;;;3.42;62.61;101474.39;1797978;79;22339;-55
2021/01/20 10:37:59;;;;;;;22.05;11.08;;;;;;;3.43;62.91;101477.52;1795924;79;21475;-55
2021/01/20 10:40:27;;;;;;;23.40;12.18;;;;;;;3.42;63.02;101473.06;1776183;80;21157;-55
2021/01/20 10:42:54;;;;;;;21.68;12.03;;;;;;;3.38;63.13;101472.61;1797569;79;21145;-55
2021/01/20 10:45:22;;;;;;;28.27;12.53;;;;;;;3.32;63.53;101469.92;1768064;79;21427;-54
2021/01/20 10:48:00;;;;;;;23.27;12.28;;;;;;;3.25;63.80;101462.81;1786277;78;21364;-57
2021/01/20 10:50:33;;;;;;;22.45;12.13;;;;;;;3.21;64.41;101461.03;1748035;79;21171;-58
2021/01/20 10:53:00;;;;;;;24.23;11.70;;;;;;;3.12;64.65;101464.05;1757856;80;21137;-58
2021/01/20 10:55:28;;;;;;;24.27;13.20;;;;;;;3.05;65.11;101460.91;1765768;80;21200;-57
2021/01/20 10:57:55;;;;;;;29.27;13.93;;;;;;;3.01;65.29;101463.96;1781656;80;21203;-57
2021/01/20 11:00:25;;;;;;;22.98;12.70;;;;;;;3.01;65.59;101456.47;1781770;80;21400;-58
2021/01/20 11:02:52;;;;;;;25.65;14.03;;;;;;;2.99;65.54;101455.57;1761499;80;21184;-57
2021/01/20 11:05:20;;;;;;;25.12;13.13;;;;;;;2.98;65.93;101453.77;1760800;80;21125;-56
2021/01/20 11:07:48;;;;;;;27.32;13.72;;;;;;;2.97;65.87;101449.34;1750841;81;21136;-57
2021/01/20 11:10:16;;;;;;;25.35;13.55;;;;;;;2.96;66.11;101450.22;1750933;80;21175;-57
2021/01/20 11:12:45;;;;;;;26.10;12.90;;;;;;;2.99;66.13;101444.52;1762114;80;21342;-58
2021/01/20 11:15:13;;;;;;;28.00;13.28;;;;;;;2.99;66.00;101452.92;1781924;80;21085;-56
2021/01/20 11:17:40;;;;;;;23.05;13.03;;;;;;;3.00;66.23;101442.31;1781862;80;21113;-57
2021/01/20 11:20:11;;;;;;;25.88;12.15;;;;;;;3.03;66.22;101445.44;1781888;80;21144;-56
2021/01/20 11:22:39;;;;;;;22.93;11.70;;;;;;;3.06;66.14;101436.19;1781844;80;21169;-57
2021/01/20 11:25:08;;;;;;;25.23;13.15;;;;;;;3.10;66.10;101434.00;1781851;80;21172;-57
2021/01/20 11:27:36;;;;;;;25.62;12.85;;;;;;;3.12;66.17;101425.62;1781777;80;21140;-58
2021/01/20 11:30:06;;;;;;;25.05;12.50;;;;;;;3.12;66.26;101432.70;1757570;80;21129;-58